createdAt,value
2018-07-28T00:00:33.639Z,19.24
2018-07-28T00:01:39.742Z,19.20
2018-07-28T00:02:46.283Z,19.20
2018-07-28T00:03:52.857Z,19.19
2018-07-28T00:04:59.405Z,19.19
2018-07-28T00:06:05.978Z,19.15
2018-07-28T00:07:12.537Z,19.09
2018-07-28T00:08:19.108Z,19.03
2018-07-28T00:09:25.659Z,18.98
2018-07-28T00:10:32.231Z,18.96
2018-07-28T00:11:38.826Z,18.96
2018-07-28T00:12:45.377Z,18.96
2018-07-28T00:13:51.926Z,19.00
2018-07-28T00:14:58.819Z,19.02
2018-07-28T00:16:05.072Z,19.08
2018-07-28T00:17:11.656Z,19.12
2018-07-28T00:18:18.720Z,19.16
2018-07-28T00:19:24.817Z,19.16
2018-07-28T00:20:32.397Z,19.15
2018-07-28T00:21:37.985Z,19.11
2018-07-28T00:22:44.554Z,19.01
2018-07-28T00:23:51.134Z,18.91
2018-07-28T00:24:57.717Z,18.94
2018-07-28T00:26:04.303Z,19.00
2018-07-28T00:27:10.878Z,18.96
2018-07-28T00:28:17.452Z,18.89
2018-07-28T00:29:24.030Z,18.82
2018-07-28T00:30:30.600Z,18.74
2018-07-28T00:31:37.284Z,18.70
2018-07-28T00:32:43.758Z,18.68
2018-07-28T00:33:51.320Z,18.67
2018-07-28T00:34:56.893Z,18.65
2018-07-28T00:36:03.962Z,18.61
2018-07-28T00:37:10.033Z,18.53
2018-07-28T00:38:16.594Z,18.49
2018-07-28T00:39:23.278Z,18.47
2018-07-28T00:40:29.716Z,18.47
2018-07-28T00:41:36.282Z,18.44
2018-07-28T00:42:42.860Z,18.46
2018-07-28T00:43:49.423Z,18.55
2018-07-28T00:44:55.993Z,18.60
2018-07-28T00:46:02.556Z,18.59
2018-07-28T00:47:09.121Z,18.57
2018-07-28T00:48:15.675Z,18.51
2018-07-28T00:49:22.736Z,18.44
2018-07-28T00:50:28.802Z,18.35
2018-07-28T00:51:35.363Z,18.31
2018-07-28T00:52:41.951Z,18.43
2018-07-28T00:53:48.981Z,18.47
2018-07-28T00:54:55.040Z,18.51
2018-07-28T00:56:01.600Z,18.60
2018-07-28T00:57:08.166Z,18.56
2018-07-28T00:58:14.719Z,18.48
2018-07-28T00:59:21.293Z,18.44
2018-07-28T01:00:27.836Z,18.40
2018-07-28T01:01:34.389Z,18.36
2018-07-28T01:02:41.463Z,18.31
2018-07-28T01:03:47.509Z,18.27
2018-07-28T01:04:54.060Z,18.23
2018-07-28T01:06:01.123Z,18.21
2018-07-28T01:07:07.290Z,18.22
2018-07-28T01:08:13.745Z,18.26
2018-07-28T01:09:20.303Z,18.23
2018-07-28T01:10:26.858Z,18.16
2018-07-28T01:11:33.438Z,18.11
2018-07-28T01:12:40.001Z,18.06
2018-07-28T01:13:46.571Z,18.04
2018-07-28T01:14:53.134Z,18.08
2018-07-28T01:15:59.713Z,18.20
2018-07-28T01:17:06.283Z,18.35
2018-07-28T01:18:12.850Z,18.36
2018-07-28T01:19:19.425Z,18.30
2018-07-28T01:20:26.491Z,18.25
2018-07-28T01:21:32.575Z,18.24
2018-07-28T01:22:39.159Z,18.26
2018-07-28T01:23:45.739Z,18.24
2018-07-28T01:24:52.313Z,18.20
2018-07-28T01:25:58.904Z,18.11
2018-07-28T01:27:05.471Z,18.02
2018-07-28T01:28:12.050Z,17.94
2018-07-28T01:29:18.627Z,17.87
2018-07-28T01:30:25.213Z,17.85
2018-07-28T01:31:31.806Z,17.81
2018-07-28T01:32:38.380Z,17.75
2018-07-28T01:33:44.943Z,17.71
2018-07-28T01:34:51.515Z,17.71
2018-07-28T01:35:59.079Z,17.87
2018-07-28T01:37:04.652Z,17.92
2018-07-28T01:38:11.233Z,17.88
2018-07-28T01:39:17.794Z,17.84
2018-07-28T01:40:24.538Z,17.84
2018-07-28T01:41:30.911Z,18.09
2018-07-28T01:42:37.463Z,18.16
2018-07-28T01:43:44.038Z,18.07
2018-07-28T01:44:50.562Z,17.94
2018-07-28T01:45:57.119Z,17.81
2018-07-28T01:47:03.665Z,17.71
2018-07-28T01:48:10.231Z,17.65
2018-07-28T01:49:16.783Z,17.59
2018-07-28T01:50:23.333Z,17.55
2018-07-28T01:51:29.886Z,17.59
2018-07-28T01:52:36.433Z,17.63
2018-07-28T01:53:42.984Z,17.64
2018-07-28T01:54:49.538Z,17.64
2018-07-28T01:55:56.083Z,17.64
2018-07-28T01:57:02.642Z,17.65
2018-07-28T01:58:09.212Z,17.67
2018-07-28T01:59:15.751Z,17.60
2018-07-28T02:00:22.316Z,17.56
2018-07-28T02:01:28.870Z,17.54
2018-07-28T02:02:35.439Z,17.57
2018-07-28T02:03:41.993Z,17.73
2018-07-28T02:04:48.553Z,17.86
2018-07-28T02:05:55.105Z,17.92
2018-07-28T02:07:01.676Z,17.93
2018-07-28T02:08:08.240Z,17.92
2018-07-28T02:09:14.799Z,17.87
2018-07-28T02:10:21.862Z,17.78
2018-07-28T02:11:27.931Z,17.87
2018-07-28T02:12:34.510Z,17.88
2018-07-28T02:13:41.077Z,17.79
2018-07-28T02:14:48.126Z,17.66
2018-07-28T02:15:54.193Z,17.54
2018-07-28T02:17:00.759Z,17.43
2018-07-28T02:18:07.324Z,17.34
2018-07-28T02:19:13.877Z,17.36
2018-07-28T02:20:20.915Z,17.41
2018-07-28T02:21:26.984Z,17.37
2018-07-28T02:22:33.531Z,17.31
2018-07-28T02:23:40.105Z,17.23
2018-07-28T02:24:46.640Z,17.17
2018-07-28T02:25:53.202Z,17.10
2018-07-28T02:26:59.761Z,17.01
2018-07-28T02:28:06.329Z,17.00
2018-07-28T02:29:12.865Z,17.12
2018-07-28T02:30:19.405Z,17.11
2018-07-28T02:31:25.962Z,17.06
2018-07-28T02:32:32.515Z,17.00
2018-07-28T02:33:39.070Z,16.93
2018-07-28T02:34:45.604Z,16.86
2018-07-28T02:35:52.154Z,16.81
2018-07-28T02:36:58.711Z,16.75
2018-07-28T02:38:05.274Z,16.84
2018-07-28T02:39:11.815Z,16.86
2018-07-28T02:40:18.369Z,16.83
2018-07-28T02:41:24.912Z,16.79
2018-07-28T02:42:31.453Z,16.73
2018-07-28T02:43:38.011Z,16.68
2018-07-28T02:44:44.548Z,16.64
2018-07-28T02:45:51.096Z,16.63
2018-07-28T02:46:57.656Z,16.57
2018-07-28T02:48:04.216Z,16.52
2018-07-28T02:49:10.757Z,16.54
2018-07-28T02:50:17.289Z,16.64
2018-07-28T02:51:23.840Z,16.67
2018-07-28T02:52:30.377Z,16.66
2018-07-28T02:53:36.921Z,16.60
2018-07-28T02:54:43.453Z,16.56
2018-07-28T02:55:49.992Z,16.56
2018-07-28T02:56:56.538Z,16.61
2018-07-28T02:58:03.566Z,16.63
2018-07-28T02:59:09.599Z,16.69
2018-07-28T03:00:16.193Z,16.74
2018-07-28T03:01:22.673Z,16.84
2018-07-28T03:02:29.210Z,17.23
2018-07-28T03:03:35.749Z,17.40
2018-07-28T03:04:42.273Z,17.37
2018-07-28T03:05:48.813Z,17.33
2018-07-28T03:06:55.331Z,17.25
2018-07-28T03:08:01.874Z,17.19
2018-07-28T03:09:08.396Z,17.16
2018-07-28T03:10:14.938Z,17.17
2018-07-28T03:11:21.461Z,17.33
2018-07-28T03:12:27.994Z,17.36
2018-07-28T03:13:34.537Z,17.35
2018-07-28T03:14:41.049Z,17.33
2018-07-28T03:15:47.586Z,17.33
2018-07-28T03:16:54.115Z,17.29
2018-07-28T03:18:00.642Z,17.21
2018-07-28T03:19:07.173Z,17.14
2018-07-28T03:20:13.690Z,17.07
2018-07-28T03:21:20.211Z,17.02
2018-07-28T03:22:26.721Z,16.99
2018-07-28T03:23:33.243Z,16.95
2018-07-28T03:24:39.751Z,16.90
2018-07-28T03:25:46.270Z,16.90
2018-07-28T03:26:52.795Z,16.91
2018-07-28T03:27:59.288Z,16.89
2018-07-28T03:29:05.812Z,16.91
2018-07-28T03:30:12.818Z,16.93
2018-07-28T03:31:18.847Z,16.94
2018-07-28T03:32:25.350Z,16.96
2018-07-28T03:33:31.865Z,16.93
2018-07-28T03:34:38.374Z,16.85
2018-07-28T03:35:44.884Z,16.77
2018-07-28T03:36:51.437Z,16.73
2018-07-28T03:37:57.923Z,16.73
2018-07-28T03:39:05.437Z,16.68
2018-07-28T03:40:10.944Z,16.68
2018-07-28T03:41:17.465Z,16.69
2018-07-28T03:42:23.991Z,16.72
2018-07-28T03:43:30.509Z,16.80
2018-07-28T03:44:37.526Z,16.85
2018-07-28T03:45:43.537Z,16.84
2018-07-28T03:46:50.271Z,16.84
2018-07-28T03:47:56.847Z,16.83
2018-07-28T03:49:03.114Z,16.77
2018-07-28T03:50:09.653Z,16.78
2018-07-28T03:51:16.269Z,16.85
2018-07-28T03:52:22.694Z,16.94
2018-07-28T03:53:29.227Z,16.99
2018-07-28T03:54:35.754Z,17.00
2018-07-28T03:55:42.284Z,16.97
2018-07-28T03:56:48.815Z,16.89
2018-07-28T03:57:55.345Z,16.86
2018-07-28T03:59:01.891Z,16.86
2018-07-28T04:00:08.414Z,16.93
2018-07-28T04:01:14.953Z,17.01
2018-07-28T04:02:21.488Z,16.97
2018-07-28T04:03:28.030Z,16.88
2018-07-28T04:04:34.554Z,16.78
2018-07-28T04:05:41.094Z,16.79
2018-07-28T04:06:47.619Z,16.83
2018-07-28T04:07:54.161Z,16.85
2018-07-28T04:09:00.682Z,16.81
2018-07-28T04:10:07.211Z,16.76
2018-07-28T04:11:13.747Z,16.72
2018-07-28T04:12:20.266Z,16.71
2018-07-28T04:13:27.309Z,16.73
2018-07-28T04:14:33.326Z,16.78
2018-07-28T04:15:39.846Z,16.87
2018-07-28T04:16:46.383Z,16.88
2018-07-28T04:17:52.908Z,16.88
2018-07-28T04:18:59.451Z,16.90
2018-07-28T04:20:05.977Z,16.94
2018-07-28T04:21:12.525Z,16.99
2018-07-28T04:22:19.052Z,17.05
2018-07-28T04:23:25.591Z,17.08
2018-07-28T04:24:32.617Z,17.09
2018-07-28T04:25:38.649Z,17.09
2018-07-28T04:26:45.283Z,17.14
2018-07-28T04:27:51.710Z,17.19
2018-07-28T04:28:58.252Z,17.30
2018-07-28T04:30:04.783Z,17.38
2018-07-28T04:31:11.321Z,17.35
2018-07-28T04:32:17.856Z,17.33
2018-07-28T04:33:24.895Z,17.33
2018-07-28T04:34:30.947Z,17.33
2018-07-28T04:35:37.461Z,17.36
2018-07-28T04:36:44.014Z,17.38
2018-07-28T04:37:50.539Z,17.38
2018-07-28T04:38:57.087Z,17.39
2018-07-28T04:40:03.628Z,17.39
2018-07-28T04:41:10.172Z,17.42
2018-07-28T04:42:16.726Z,17.45
2018-07-28T04:43:23.265Z,17.45
2018-07-28T04:44:29.812Z,17.47
2018-07-28T04:45:36.352Z,17.52
2018-07-28T04:46:42.933Z,17.59
2018-07-28T04:47:49.470Z,17.66
2018-07-28T04:48:56.030Z,17.74
2018-07-28T04:50:02.568Z,17.79
2018-07-28T04:51:09.134Z,17.83
2018-07-28T04:52:15.699Z,17.92
2018-07-28T04:53:22.265Z,18.02
2018-07-28T04:54:28.861Z,18.10
2018-07-28T04:55:35.399Z,18.18
2018-07-28T04:56:41.985Z,18.30
2018-07-28T04:57:48.555Z,18.40
2018-07-28T04:58:55.149Z,18.41
2018-07-28T05:00:01.717Z,18.42
2018-07-28T05:01:08.299Z,18.42
2018-07-28T05:02:14.884Z,18.43
2018-07-28T05:03:21.496Z,18.48
2018-07-28T05:04:28.055Z,18.59
2018-07-28T05:05:34.636Z,18.69
2018-07-28T05:06:41.219Z,18.87
2018-07-28T05:07:47.805Z,19.06
2018-07-28T05:08:54.400Z,19.18
2018-07-28T05:10:00.995Z,19.20
2018-07-28T05:11:07.578Z,19.17
2018-07-28T05:12:14.180Z,19.18
2018-07-28T05:13:20.781Z,19.15
2018-07-28T05:14:27.376Z,19.14
2018-07-28T05:15:33.961Z,19.13
2018-07-28T05:16:40.582Z,19.19
2018-07-28T05:17:47.280Z,19.27
2018-07-28T05:18:53.767Z,19.38
2018-07-28T05:20:00.377Z,19.50
2018-07-28T05:21:06.970Z,19.61
2018-07-28T05:22:13.581Z,19.68
2018-07-28T05:23:20.198Z,19.73
2018-07-28T05:24:26.812Z,19.80
2018-07-28T05:25:33.407Z,19.88
2018-07-28T05:26:40.036Z,19.94
2018-07-28T05:27:46.638Z,20.01
2018-07-28T05:28:53.250Z,20.08
2018-07-28T05:29:59.868Z,20.16
2018-07-28T05:31:06.976Z,20.23
2018-07-28T05:32:13.093Z,20.31
2018-07-28T05:33:19.725Z,20.35
2018-07-28T05:34:26.353Z,20.38
2018-07-28T05:35:32.978Z,20.37
2018-07-28T05:36:39.599Z,20.36
2018-07-28T05:37:46.229Z,20.38
2018-07-28T05:38:52.877Z,20.39
2018-07-28T05:39:59.492Z,20.41
2018-07-28T05:41:06.128Z,20.43
2018-07-28T05:42:13.764Z,20.50
2018-07-28T05:43:19.394Z,20.58
2018-07-28T05:44:26.028Z,20.65
2018-07-28T05:45:32.655Z,20.73
2018-07-28T05:46:39.301Z,20.76
2018-07-28T05:47:45.936Z,20.78
2018-07-28T05:48:52.569Z,20.81
2018-07-28T05:49:59.263Z,20.91
2018-07-28T05:51:05.862Z,20.99
2018-07-28T05:52:12.506Z,21.08
2018-07-28T05:53:19.302Z,21.15
2018-07-28T05:54:25.820Z,21.20
2018-07-28T05:55:32.462Z,21.27
2018-07-28T05:56:39.086Z,21.30
2018-07-28T05:57:45.734Z,21.37
2018-07-28T05:58:52.385Z,21.40
2018-07-28T05:59:59.048Z,21.41
2018-07-28T06:01:05.690Z,21.43
2018-07-28T06:02:12.389Z,21.43
2018-07-28T06:03:19.000Z,21.44
2018-07-28T06:04:25.670Z,21.51
2018-07-28T06:05:32.322Z,21.61
2018-07-28T06:06:39.696Z,21.67
2018-07-28T06:07:45.645Z,21.72
2018-07-28T06:08:52.294Z,21.78
2018-07-28T06:09:58.969Z,21.80
2018-07-28T06:11:05.631Z,21.85
2018-07-28T06:12:12.301Z,21.88
2018-07-28T06:13:18.961Z,21.91
2018-07-28T06:14:25.644Z,21.97
2018-07-28T06:15:32.811Z,22.03
2018-07-28T06:16:38.997Z,22.09
2018-07-28T06:17:45.662Z,22.15
2018-07-28T06:18:52.325Z,22.26
2018-07-28T06:19:59.019Z,22.29
2018-07-28T06:21:05.690Z,22.35
2018-07-28T06:22:12.366Z,22.41
2018-07-28T06:23:19.052Z,22.49
2018-07-28T06:24:25.762Z,22.58
2018-07-28T06:25:32.433Z,22.65
2018-07-28T06:26:39.112Z,22.78
2018-07-28T06:27:46.283Z,22.91
2018-07-28T06:28:52.472Z,22.94
2018-07-28T06:29:59.343Z,22.94
2018-07-28T06:31:05.853Z,22.95
2018-07-28T06:32:12.554Z,22.98
2018-07-28T06:33:19.244Z,23.05
2018-07-28T06:34:25.935Z,23.12
2018-07-28T06:35:32.641Z,23.20
2018-07-28T06:36:39.342Z,23.28
2018-07-28T06:37:46.049Z,23.36
2018-07-28T06:38:52.746Z,23.42
2018-07-28T06:39:59.454Z,23.47
2018-07-28T06:41:06.175Z,23.58
2018-07-28T06:42:12.879Z,23.69
2018-07-28T06:43:19.603Z,23.85
2018-07-28T06:44:26.328Z,24.04
2018-07-28T06:45:33.066Z,24.21
2018-07-28T06:46:39.791Z,24.42
2018-07-28T06:47:47.024Z,24.60
2018-07-28T06:48:53.268Z,24.84
2018-07-28T06:50:00.027Z,25.02
2018-07-28T06:51:06.791Z,25.22
2018-07-28T06:52:13.560Z,25.46
2018-07-28T06:53:20.327Z,25.68
2018-07-28T06:54:27.118Z,25.91
2018-07-28T06:55:33.932Z,26.12
2018-07-28T06:56:41.726Z,26.31
2018-07-28T06:57:47.540Z,26.48
2018-07-28T06:58:54.366Z,26.60
2018-07-28T07:00:01.279Z,26.71
2018-07-28T07:01:07.994Z,26.69
2018-07-28T07:02:14.820Z,26.57
2018-07-28T07:03:21.635Z,26.44
2018-07-28T07:04:28.447Z,26.32
2018-07-28T07:05:36.265Z,26.23
2018-07-28T07:06:42.093Z,26.18
2018-07-28T07:07:49.897Z,26.13
2018-07-28T07:08:55.694Z,26.08
2018-07-28T07:10:02.536Z,26.02
2018-07-28T07:11:09.336Z,25.95
2018-07-28T07:12:16.126Z,25.92
2018-07-28T07:13:22.939Z,25.95
2018-07-28T07:14:29.785Z,26.04
2018-07-28T07:15:36.558Z,26.13
2018-07-28T07:16:43.366Z,26.23
2018-07-28T07:17:50.199Z,26.28
2018-07-28T07:18:57.011Z,26.46
2018-07-28T07:20:03.865Z,26.60
2018-07-28T07:21:10.699Z,26.70
2018-07-28T07:22:17.542Z,26.79
2018-07-28T07:23:24.410Z,26.96
2018-07-28T07:24:31.259Z,27.16
2018-07-28T07:25:38.156Z,27.43
2018-07-28T07:26:45.017Z,27.76
2018-07-28T07:27:51.907Z,28.05
2018-07-28T07:28:58.812Z,28.40
2018-07-28T07:30:05.724Z,28.82
2018-07-28T07:31:12.628Z,29.22
2018-07-28T07:32:19.559Z,29.57
2018-07-28T07:33:26.486Z,29.72
2018-07-28T07:34:33.413Z,29.78
2018-07-28T07:35:40.351Z,29.74
2018-07-28T07:36:47.298Z,29.75
2018-07-28T07:37:54.225Z,29.86
2018-07-28T07:39:01.278Z,29.78
2018-07-28T07:40:08.124Z,29.83
2018-07-28T07:41:15.567Z,29.98
2018-07-28T07:42:22.026Z,29.98
2018-07-28T07:43:28.978Z,30.02
2018-07-28T07:44:35.925Z,30.19
2018-07-28T07:45:42.881Z,30.20
2018-07-28T07:46:49.876Z,30.19
2018-07-28T07:47:56.788Z,30.08
2018-07-28T07:49:03.768Z,29.81
2018-07-28T07:50:11.282Z,29.48
2018-07-28T07:51:17.690Z,29.37
2018-07-28T07:52:24.641Z,29.30
2018-07-28T07:53:31.619Z,29.08
2018-07-28T07:54:38.579Z,29.05
2018-07-28T07:55:45.540Z,29.26
2018-07-28T07:56:52.503Z,29.42
2018-07-28T07:57:59.467Z,29.39
2018-07-28T07:59:06.424Z,29.40
2018-07-28T08:00:13.396Z,29.29
2018-07-28T08:01:20.334Z,29.25
2018-07-28T08:02:27.290Z,29.21
2018-07-28T08:03:34.227Z,29.07
2018-07-28T08:04:41.340Z,29.00
2018-07-28T08:05:48.113Z,28.93
2018-07-28T08:06:56.048Z,28.83
2018-07-28T08:08:02.465Z,28.74
2018-07-28T08:09:08.910Z,28.66
2018-07-28T08:10:15.841Z,28.60
2018-07-28T08:11:22.762Z,28.57
2018-07-28T08:12:29.673Z,28.55
2018-07-28T08:13:36.595Z,28.54
2018-07-28T08:14:43.519Z,28.52
2018-07-28T08:15:50.444Z,28.33
2018-07-28T08:16:57.352Z,28.26
2018-07-28T08:18:04.274Z,28.23
2018-07-28T08:19:11.287Z,28.24
2018-07-28T08:20:18.100Z,28.28
2018-07-28T08:21:25.029Z,28.29
2018-07-28T08:22:31.936Z,28.26
2018-07-28T08:23:39.043Z,28.29
2018-07-28T08:24:45.758Z,28.31
2018-07-28T08:25:52.687Z,28.23
2018-07-28T08:26:59.599Z,28.18
2018-07-28T08:28:06.502Z,28.20
2018-07-28T08:29:13.420Z,28.20
2018-07-28T08:30:20.338Z,28.22
2018-07-28T08:31:27.269Z,28.14
2018-07-28T08:32:34.190Z,28.15
2018-07-28T08:33:41.104Z,28.25
2018-07-28T08:34:48.031Z,28.26
2018-07-28T08:35:54.969Z,28.33
2018-07-28T08:37:01.895Z,28.50
2018-07-28T08:38:08.830Z,28.63
2018-07-28T08:39:15.783Z,28.81
2018-07-28T08:40:22.721Z,29.00
2018-07-28T08:41:29.730Z,29.15
2018-07-28T08:42:36.639Z,29.29
2018-07-28T08:43:43.588Z,29.32
2018-07-28T08:44:50.566Z,29.50
2018-07-28T08:45:57.538Z,29.73
2018-07-28T08:47:04.518Z,29.91
2018-07-28T08:48:11.491Z,30.15
2018-07-28T08:49:18.513Z,30.43
2018-07-28T08:50:25.435Z,30.57
2018-07-28T08:51:32.426Z,30.69
2018-07-28T08:52:39.401Z,30.72
2018-07-28T08:53:46.385Z,30.74
2018-07-28T08:54:53.378Z,30.72
2018-07-28T08:56:00.346Z,30.65
2018-07-28T08:57:07.303Z,30.36
2018-07-28T08:58:14.273Z,30.13
2018-07-28T08:59:21.247Z,29.84
2018-07-28T09:00:28.209Z,29.52
2018-07-28T09:01:35.280Z,29.31
2018-07-28T09:02:42.113Z,29.13
2018-07-28T09:03:49.075Z,28.79
2018-07-28T09:04:56.008Z,28.68
2018-07-28T09:06:03.000Z,28.57
2018-07-28T09:07:09.895Z,28.43
2018-07-28T09:08:16.824Z,28.37
2018-07-28T09:09:23.775Z,28.31
2018-07-28T09:10:30.728Z,28.17
2018-07-28T09:11:37.645Z,28.15
2018-07-28T09:12:44.578Z,28.13
2018-07-28T09:13:51.508Z,27.88
2018-07-28T09:14:58.431Z,27.22
2018-07-28T09:16:05.359Z,26.58
2018-07-28T09:17:12.272Z,26.10
2018-07-28T09:18:19.277Z,25.79
2018-07-28T09:19:26.092Z,25.66
2018-07-28T09:20:32.987Z,25.69
2018-07-28T09:21:39.901Z,25.88
2018-07-28T09:22:46.805Z,26.11
2018-07-28T09:23:53.903Z,26.44
2018-07-28T09:25:00.646Z,26.79
2018-07-28T09:26:07.539Z,27.11
2018-07-28T09:27:14.440Z,27.36
2018-07-28T09:28:21.351Z,27.59
2018-07-28T09:29:28.279Z,27.76
2018-07-28T09:30:35.364Z,27.78
2018-07-28T09:31:42.163Z,27.84
2018-07-28T09:32:49.021Z,27.89
2018-07-28T09:33:56.129Z,27.94
2018-07-28T09:35:03.482Z,27.87
2018-07-28T09:36:09.769Z,27.74
2018-07-28T09:37:16.670Z,27.63
2018-07-28T09:38:23.580Z,27.60
2018-07-28T09:39:30.491Z,27.54
2018-07-28T09:40:37.419Z,27.53
2018-07-28T09:41:44.292Z,27.52
2018-07-28T09:42:51.295Z,27.53
2018-07-28T09:43:58.106Z,27.53
2018-07-28T09:45:04.994Z,27.56
2018-07-28T09:46:11.913Z,27.65
2018-07-28T09:47:18.821Z,27.78
2018-07-28T09:48:25.738Z,27.92
2018-07-28T09:49:32.659Z,28.02
2018-07-28T09:50:39.604Z,28.08
2018-07-28T09:51:47.018Z,28.18
2018-07-28T09:52:54.012Z,28.34
2018-07-28T09:54:00.414Z,28.57
2018-07-28T09:55:07.379Z,28.85
2018-07-28T09:56:14.366Z,29.17
2018-07-28T09:57:21.304Z,29.46
2018-07-28T09:58:28.287Z,29.66
2018-07-28T09:59:35.277Z,29.97
2018-07-28T10:00:42.286Z,30.28
2018-07-28T10:01:49.308Z,30.50
2018-07-28T10:02:56.327Z,30.75
2018-07-28T10:04:03.374Z,31.03
2018-07-28T10:05:10.416Z,31.16
2018-07-28T10:06:17.481Z,31.40
2018-07-28T10:07:24.545Z,31.69
2018-07-28T10:08:31.617Z,31.96
2018-07-28T10:09:38.703Z,32.21
2018-07-28T10:10:45.784Z,32.54
2018-07-28T10:11:52.880Z,32.79
2018-07-28T10:12:59.969Z,33.02
2018-07-28T10:14:07.056Z,33.23
2018-07-28T10:15:14.149Z,33.38
2018-07-28T10:16:21.345Z,33.47
2018-07-28T10:17:28.826Z,33.44
2018-07-28T10:18:35.588Z,33.19
2018-07-28T10:19:42.496Z,32.93
2018-07-28T10:20:49.581Z,32.74
2018-07-28T10:21:56.662Z,32.66
2018-07-28T10:23:03.778Z,32.50
2018-07-28T10:24:10.812Z,32.43
2018-07-28T10:25:17.886Z,32.48
2018-07-28T10:26:24.958Z,32.52
2018-07-28T10:27:32.061Z,32.36
2018-07-28T10:28:39.087Z,32.19
2018-07-28T10:29:47.577Z,32.18
2018-07-28T10:30:55.131Z,32.31
2018-07-28T10:32:01.297Z,32.30
2018-07-28T10:33:09.219Z,32.23
2018-07-28T10:34:14.352Z,32.16
2018-07-28T10:35:22.253Z,31.97
2018-07-28T10:36:28.455Z,31.99
2018-07-28T10:37:35.411Z,31.93
2018-07-28T10:38:42.435Z,31.81
2018-07-28T10:39:49.476Z,31.74
2018-07-28T10:40:56.521Z,31.97
2018-07-28T10:42:03.577Z,32.11
2018-07-28T10:43:10.623Z,32.18
2018-07-28T10:44:17.678Z,32.09
2018-07-28T10:45:24.724Z,31.40
2018-07-28T10:46:31.789Z,31.50
2018-07-28T10:47:38.843Z,31.58
2018-07-28T10:48:45.868Z,31.70
2018-07-28T10:49:52.912Z,31.89
2018-07-28T10:50:59.979Z,31.96
2018-07-28T10:52:07.109Z,31.97
2018-07-28T10:53:14.112Z,32.16
2018-07-28T10:54:21.292Z,32.32
2018-07-28T10:55:28.287Z,32.51
2018-07-28T10:56:35.392Z,32.69
2018-07-28T10:57:42.490Z,32.96
2018-07-28T10:58:49.981Z,33.29
2018-07-28T10:59:56.779Z,33.43
2018-07-28T11:01:04.377Z,33.25
2018-07-28T11:02:11.529Z,33.26
2018-07-28T11:03:18.173Z,33.34
2018-07-28T11:04:25.328Z,33.56
2018-07-28T11:05:32.485Z,33.71
2018-07-28T11:06:39.678Z,33.89
2018-07-28T11:07:46.820Z,34.03
2018-07-28T11:08:53.994Z,34.06
2018-07-28T11:10:01.269Z,34.15
2018-07-28T11:11:08.340Z,34.18
2018-07-28T11:12:15.512Z,34.21
2018-07-28T11:13:22.710Z,34.16
2018-07-28T11:14:29.855Z,34.15
2018-07-28T11:15:37.624Z,34.28
2018-07-28T11:16:44.236Z,34.41
2018-07-28T11:17:51.428Z,34.61
2018-07-28T11:18:58.662Z,34.67
2018-07-28T11:20:06.139Z,34.83
2018-07-28T11:21:13.118Z,34.95
2018-07-28T11:22:20.355Z,34.93
2018-07-28T11:23:27.659Z,35.13
2018-07-28T11:24:35.076Z,35.44
2018-07-28T11:25:42.566Z,35.72
2018-07-28T11:26:50.171Z,35.81
2018-07-28T11:27:57.836Z,35.91
2018-07-28T11:29:05.581Z,35.96
2018-07-28T11:30:13.394Z,35.94
2018-07-28T11:31:21.266Z,35.49
2018-07-28T11:32:29.281Z,35.37
2018-07-28T11:33:37.128Z,35.43
2018-07-28T11:34:45.088Z,35.34
2018-07-28T11:35:52.994Z,35.14
2018-07-28T11:37:00.855Z,34.82
2018-07-28T11:38:08.721Z,34.48
2018-07-28T11:39:16.505Z,34.21
2018-07-28T11:40:24.303Z,33.99
2018-07-28T11:41:32.037Z,33.91
2018-07-28T11:42:40.756Z,33.70
2018-07-28T11:43:47.444Z,33.74
2018-07-28T11:44:55.149Z,33.97
2018-07-28T11:46:02.835Z,34.24
2018-07-28T11:47:10.526Z,34.61
2018-07-28T11:48:18.228Z,34.88
2018-07-28T11:49:25.971Z,34.90
2018-07-28T11:50:33.772Z,35.27
2018-07-28T11:51:41.759Z,35.52
2018-07-28T11:52:49.511Z,35.43
2018-07-28T11:53:57.391Z,35.29
2018-07-28T11:55:05.741Z,35.21
2018-07-28T11:56:13.283Z,35.09
2018-07-28T11:57:21.283Z,34.90
2018-07-28T11:58:29.403Z,35.04
2018-07-28T11:59:37.212Z,34.94
2018-07-28T12:00:45.270Z,34.98
2018-07-28T12:01:53.604Z,34.86
2018-07-28T12:03:01.349Z,34.91
2018-07-28T12:04:09.405Z,34.80
2018-07-28T12:05:17.515Z,34.70
2018-07-28T12:06:25.643Z,34.81
2018-07-28T12:07:33.774Z,34.87
2018-07-28T12:08:41.907Z,34.76
2018-07-28T12:09:50.055Z,34.61
2018-07-28T12:10:58.217Z,34.48
2018-07-28T12:12:06.393Z,34.43
2018-07-28T12:13:14.578Z,34.38
2018-07-28T12:14:22.769Z,34.28
2018-07-28T12:15:30.965Z,34.25
2018-07-28T12:16:39.142Z,34.17
2018-07-28T12:17:47.264Z,34.21
2018-07-28T12:18:55.345Z,33.98
2018-07-28T12:20:03.425Z,34.15
2018-07-28T12:21:11.483Z,34.11
2018-07-28T12:22:19.589Z,34.32
2018-07-28T12:23:27.730Z,34.59
2018-07-28T12:24:35.907Z,34.98
2018-07-28T12:25:44.106Z,35.46
2018-07-28T12:26:52.240Z,35.56
2018-07-28T12:28:00.278Z,35.91
2018-07-28T12:29:10.428Z,36.13
2018-07-28T12:30:16.180Z,36.12
2018-07-28T12:31:23.980Z,35.87
2018-07-28T12:32:31.730Z,35.74
2018-07-28T12:33:39.416Z,35.70
2018-07-28T12:34:47.087Z,35.52
2018-07-28T12:35:54.660Z,35.27
2018-07-28T12:37:02.230Z,35.41
2018-07-28T12:38:09.772Z,35.66
2018-07-28T12:39:18.018Z,35.96
2018-07-28T12:40:25.048Z,36.47
2018-07-28T12:41:33.262Z,36.80
2018-07-28T12:42:40.334Z,36.84
2018-07-28T12:43:47.937Z,36.85
2018-07-28T12:44:55.526Z,36.74
2018-07-28T12:46:03.565Z,36.60
2018-07-28T12:47:10.605Z,36.42
2018-07-28T12:48:18.120Z,36.05
2018-07-28T12:49:26.117Z,35.73
2018-07-28T12:50:33.060Z,35.23
2018-07-28T12:51:40.505Z,34.67
2018-07-28T12:52:47.888Z,34.55
2018-07-28T12:53:55.275Z,34.40
2018-07-28T12:55:02.647Z,34.34
2018-07-28T12:56:09.994Z,34.28
2018-07-28T12:57:17.320Z,34.09
2018-07-28T12:58:24.615Z,34.00
2018-07-28T12:59:31.911Z,33.75
2018-07-28T13:00:39.199Z,33.78
2018-07-28T13:01:46.457Z,33.83
2018-07-28T13:02:53.731Z,33.71
2018-07-28T13:04:01.056Z,33.72
2018-07-28T13:05:08.233Z,33.69
2018-07-28T13:06:15.463Z,33.43
2018-07-28T13:07:22.706Z,33.45
2018-07-28T13:08:29.937Z,33.74
2018-07-28T13:09:37.169Z,34.15
2018-07-28T13:10:44.403Z,34.35
2018-07-28T13:11:51.629Z,34.67
2018-07-28T13:12:58.853Z,35.03
2018-07-28T13:14:06.082Z,35.13
2018-07-28T13:15:13.318Z,35.12
2018-07-28T13:16:20.524Z,34.73
2018-07-28T13:17:27.740Z,34.73
2018-07-28T13:18:34.957Z,34.58
2018-07-28T13:19:42.284Z,34.40
2018-07-28T13:20:49.354Z,34.17
2018-07-28T13:21:56.534Z,34.04
2018-07-28T13:23:03.703Z,33.82
2018-07-28T13:24:10.873Z,33.54
2018-07-28T13:25:18.202Z,33.24
2018-07-28T13:26:25.259Z,33.08
2018-07-28T13:27:32.334Z,32.96
2018-07-28T13:28:39.431Z,32.82
2018-07-28T13:29:46.624Z,32.72
2018-07-28T13:30:53.755Z,32.41
2018-07-28T13:32:00.782Z,32.26
2018-07-28T13:33:07.888Z,32.25
2018-07-28T13:34:14.995Z,32.23
2018-07-28T13:35:22.564Z,32.23
2018-07-28T13:36:29.168Z,32.06
2018-07-28T13:37:36.213Z,32.05
2018-07-28T13:38:43.282Z,31.95
2018-07-28T13:39:50.348Z,31.91
2018-07-28T13:40:57.408Z,31.78
2018-07-28T13:42:04.480Z,31.74
2018-07-28T13:43:11.524Z,31.73
2018-07-28T13:44:18.578Z,31.70
2018-07-28T13:45:25.624Z,31.72
2018-07-28T13:46:32.672Z,31.88
2018-07-28T13:47:39.834Z,31.94
2018-07-28T13:48:46.778Z,31.87
2018-07-28T13:49:53.819Z,31.84
2018-07-28T13:51:00.897Z,32.02
2018-07-28T13:52:07.914Z,32.30
2018-07-28T13:53:14.996Z,32.43
2018-07-28T13:54:21.999Z,32.46
2018-07-28T13:55:29.053Z,32.26
2018-07-28T13:56:36.095Z,31.67
2018-07-28T13:57:43.133Z,31.09
2018-07-28T13:58:50.285Z,30.63
2018-07-28T13:59:57.200Z,30.31
2018-07-28T14:01:04.406Z,29.99
2018-07-28T14:02:11.242Z,29.89
2018-07-28T14:03:18.264Z,29.76
2018-07-28T14:04:25.262Z,29.25
2018-07-28T14:05:32.255Z,28.30
2018-07-28T14:06:39.228Z,27.32
2018-07-28T14:07:47.180Z,26.72
2018-07-28T14:08:53.148Z,26.39
2018-07-28T14:10:00.089Z,26.12
2018-07-28T14:11:07.027Z,26.15
2018-07-28T14:12:13.975Z,26.31
2018-07-28T14:13:21.437Z,26.72
2018-07-28T14:14:28.471Z,27.24
2018-07-28T14:15:35.026Z,27.68
2018-07-28T14:16:42.134Z,28.03
2018-07-28T14:17:49.265Z,28.18
2018-07-28T14:18:56.379Z,28.09
2018-07-28T14:20:03.520Z,28.06
2018-07-28T14:21:10.611Z,28.06